sensor_id;sensor_type;location;lat;lon;timestamp;temperature;humidity
28959;DHT22;16066;0.000;0.000;2024-03-23T06:02:08;19.50;41.10
28959;DHT22;16066;0.000;0.000;2024-03-23T06:04:35;19.40;41.10
28959;DHT22;16066;0.000;0.000;2024-03-23T06:07:01;19.50;41.70
28959;DHT22;16066;0.000;0.000;2024-03-23T06:09:27;19.40;41.00
28959;DHT22;16066;0.000;0.000;2024-03-23T06:11:52;19.40;41.00
28959;DHT22;16066;0.000;0.000;2024-03-23T06:14:18;19.40;41.00
28959;DHT22;16066;0.000;0.000;2024-03-23T06:16:43;19.40;41.00
28959;DHT22;16066;0.000;0.000;2024-03-23T06:19:09;19.40;41.10
28959;DHT22;16066;0.000;0.000;2024-03-23T06:21:35;19.40;41.10
28959;DHT22;16066;0.000;0.000;2024-03-23T06:24:00;19.40;41.70
28959;DHT22;16066;0.000;0.000;2024-03-23T06:26:26;19.40;41.10
28959;DHT22;16066;0.000;0.000;2024-03-23T06:28:51;19.40;40.90
28959;DHT22;16066;0.000;0.000;2024-03-23T06:31:17;19.40;41.00
28959;DHT22;16066;0.000;0.000;2024-03-23T06:33:43;19.50;41.50
28959;DHT22;16066;0.000;0.000;2024-03-23T06:36:09;19.50;41.40
28959;DHT22;16066;0.000;0.000;2024-03-23T06:38:39;19.60;42.20
28959;DHT22;16066;0.000;0.000;2024-03-23T06:41:05;19.60;42.40
28959;DHT22;16066;0.000;0.000;2024-03-23T06:43:31;19.70;42.30
28959;DHT22;16066;0.000;0.000;2024-03-23T06:45:57;19.80;42.10
28959;DHT22;16066;0.000;0.000;2024-03-23T06:48:22;19.80;42.10
28959;DHT22;16066;0.000;0.000;2024-03-23T06:50:48;19.90;42.30
28959;DHT22;16066;0.000;0.000;2024-03-23T06:53:14;19.90;42.40
28959;DHT22;16066;0.000;0.000;2024-03-23T06:55:40;20.00;42.50
28959;DHT22;16066;0.000;0.000;2024-03-23T06:58:05;20.10;42.60
28959;DHT22;16066;0.000;0.000;2024-03-23T07:00:31;20.10;42.70
28959;DHT22;16066;0.000;0.000;2024-03-23T07:02:57;20.20;42.90
28959;DHT22;16066;0.000;0.000;2024-03-23T07:05:23;20.30;43.00
28959;DHT22;16066;0.000;0.000;2024-03-23T07:07:49;20.40;43.20
28959;DHT22;16066;0.000;0.000;2024-03-23T07:10:14;20.40;43.00
28959;DHT22;16066;0.000;0.000;2024-03-23T07:12:40;20.40;42.20
28959;DHT22;16066;0.000;0.000;2024-03-23T07:15:06;20.50;42.20
28959;DHT22;16066;0.000;0.000;2024-03-23T07:17:31;20.50;41.70
28959;DHT22;16066;0.000;0.000;2024-03-23T07:19:58;20.60;41.60
28959;DHT22;16066;0.000;0.000;2024-03-23T07:22:23;20.60;41.40
28959;DHT22;16066;0.000;0.000;2024-03-23T07:24:49;20.60;41.40
28959;DHT22;16066;0.000;0.000;2024-03-23T07:27:15;20.70;41.30
28959;DHT22;16066;0.000;0.000;2024-03-23T07:29:40;20.70;41.30
28959;DHT22;16066;0.000;0.000;2024-03-23T07:32:06;20.70;41.20
28959;DHT22;16066;0.000;0.000;2024-03-23T07:34:31;20.70;41.20
28959;DHT22;16066;0.000;0.000;2024-03-23T07:36:57;20.80;41.30
28959;DHT22;16066;0.000;0.000;2024-03-23T07:39:22;20.80;41.20
28959;DHT22;16066;0.000;0.000;2024-03-23T07:41:48;20.80;41.00
28959;DHT22;16066;0.000;0.000;2024-03-23T07:44:13;20.80;40.90
28959;DHT22;16066;0.000;0.000;2024-03-23T07:46:39;20.90;41.20
28959;DHT22;16066;0.000;0.000;2024-03-23T07:49:04;20.90;41.30
28959;DHT22;16066;0.000;0.000;2024-03-23T07:51:30;20.90;41.20
28959;DHT22;16066;0.000;0.000;2024-03-23T07:53:55;21.00;41.20
28959;DHT22;16066;0.000;0.000;2024-03-23T07:56:21;21.00;41.20
28959;DHT22;16066;0.000;0.000;2024-03-23T07:58:48;21.00;41.10
28959;DHT22;16066;0.000;0.000;2024-03-23T08:01:15;21.10;41.10
28959;DHT22;16066;0.000;0.000;2024-03-23T08:03:43;21.10;41.00
28959;DHT22;16066;0.000;0.000;2024-03-23T08:08:34;21.10;40.80
28959;DHT22;16066;0.000;0.000;2024-03-23T08:11:00;21.20;41.50
28959;DHT22;16066;0.000;0.000;2024-03-23T08:13:26;21.20;41.00
28959;DHT22;16066;0.000;0.000;2024-03-23T08:15:52;21.20;41.60
28959;DHT22;16066;0.000;0.000;2024-03-23T08:18:17;21.30;40.80
28959;DHT22;16066;0.000;0.000;2024-03-23T08:20:43;21.30;40.80
28959;DHT22;16066;0.000;0.000;2024-03-23T08:23:08;21.30;40.70
28959;DHT22;16066;0.000;0.000;2024-03-23T08:25:34;21.30;40.80
28959;DHT22;16066;0.000;0.000;2024-03-23T08:28:00;21.30;40.70
28959;DHT22;16066;0.000;0.000;2024-03-23T08:30:26;21.40;40.50
28959;DHT22;16066;0.000;0.000;2024-03-23T08:32:52;21.30;40.40
28959;DHT22;16066;0.000;0.000;2024-03-23T08:35:17;21.40;40.50
28959;DHT22;16066;0.000;0.000;2024-03-23T08:37:43;21.40;40.80
28959;DHT22;16066;0.000;0.000;2024-03-23T08:40:09;21.40;40.50
28959;DHT22;16066;0.000;0.000;2024-03-23T08:42:35;21.40;40.40
28959;DHT22;16066;0.000;0.000;2024-03-23T08:45:00;21.40;40.50
28959;DHT22;16066;0.000;0.000;2024-03-23T08:47:26;21.40;40.40
28959;DHT22;16066;0.000;0.000;2024-03-23T08:49:52;21.40;40.10
28959;DHT22;16066;0.000;0.000;2024-03-23T08:52:17;21.40;40.20
28959;DHT22;16066;0.000;0.000;2024-03-23T08:54:43;21.40;40.10
28959;DHT22;16066;0.000;0.000;2024-03-23T08:57:08;21.40;40.10
28959;DHT22;16066;0.000;0.000;2024-03-23T08:59:34;21.40;40.10
28959;DHT22;16066;0.000;0.000;2024-03-23T09:02:00;21.30;39.90
28959;DHT22;16066;0.000;0.000;2024-03-23T09:04:25;21.30;39.80
28959;DHT22;16066;0.000;0.000;2024-03-23T09:06:51;21.30;39.90
28959;DHT22;16066;0.000;0.000;2024-03-23T09:09:17;21.30;39.90
28959;DHT22;16066;0.000;0.000;2024-03-23T09:11:42;21.30;39.90
28959;DHT22;16066;0.000;0.000;2024-03-23T09:14:08;21.30;39.90
28959;DHT22;16066;0.000;0.000;2024-03-23T09:16:34;21.30;39.90
28959;DHT22;16066;0.000;0.000;2024-03-23T09:19:00;21.30;39.90
28959;DHT22;16066;0.000;0.000;2024-03-23T09:21:25;21.30;39.90
28959;DHT22;16066;0.000;0.000;2024-03-23T09:23:51;21.30;39.70
28959;DHT22;16066;0.000;0.000;2024-03-23T09:26:16;21.20;39.30
28959;DHT22;16066;0.000;0.000;2024-03-23T09:28:42;21.20;39.10
28959;DHT22;16066;0.000;0.000;2024-03-23T09:31:08;21.20;38.80
28959;DHT22;16066;0.000;0.000;2024-03-23T09:33:35;21.20;38.80
28959;DHT22;16066;0.000;0.000;2024-03-23T09:36:04;21.20;38.60
28959;DHT22;16066;0.000;0.000;2024-03-23T09:38:30;21.20;38.70
28959;DHT22;16066;0.000;0.000;2024-03-23T09:40:57;21.20;38.80
28959;DHT22;16066;0.000;0.000;2024-03-23T09:43:23;21.20;38.70
28959;DHT22;16066;0.000;0.000;2024-03-23T09:45:49;21.10;38.60
28959;DHT22;16066;0.000;0.000;2024-03-23T09:48:15;21.20;38.80
28959;DHT22;16066;0.000;0.000;2024-03-23T09:50:42;21.20;38.80
28959;DHT22;16066;0.000;0.000;2024-03-23T09:53:10;21.20;38.80
28959;DHT22;16066;0.000;0.000;2024-03-23T09:55:37;21.20;38.90
28959;DHT22;16066;0.000;0.000;2024-03-23T09:58:03;21.30;39.20
28959;DHT22;16066;0.000;0.000;2024-03-23T10:00:34;21.30;39.30
28959;DHT22;16066;0.000;0.000;2024-03-23T10:02:59;21.30;39.30
28959;DHT22;16066;0.000;0.000;2024-03-23T10:05:28;21.30;39.30
28959;DHT22;16066;0.000;0.000;2024-03-23T10:07:54;21.30;39.40
28959;DHT22;16066;0.000;0.000;2024-03-23T10:10:20;21.20;39.30
28959;DHT22;16066;0.000;0.000;2024-03-23T10:12:48;21.30;39.50
28959;DHT22;16066;0.000;0.000;2024-03-23T10:15:25;21.30;39.60
28959;DHT22;16066;0.000;0.000;2024-03-23T10:17:51;21.30;39.70
28959;DHT22;16066;0.000;0.000;2024-03-23T10:20:21;21.30;39.80
28959;DHT22;16066;0.000;0.000;2024-03-23T10:22:50;21.40;39.80
28959;DHT22;16066;0.000;0.000;2024-03-23T10:25:17;21.40;40.00
28959;DHT22;16066;0.000;0.000;2024-03-23T10:27:42;21.40;39.80
28959;DHT22;16066;0.000;0.000;2024-03-23T10:32:35;21.40;39.80
28959;DHT22;16066;0.000;0.000;2024-03-23T10:35:14;21.40;39.80
28959;DHT22;16066;0.000;0.000;2024-03-23T10:37:44;21.40;40.20
28959;DHT22;16066;0.000;0.000;2024-03-23T10:40:11;21.50;39.70
28959;DHT22;16066;0.000;0.000;2024-03-23T10:42:38;21.50;39.60
28959;DHT22;16066;0.000;0.000;2024-03-23T10:45:07;21.50;39.80
28959;DHT22;16066;0.000;0.000;2024-03-23T10:47:34;21.50;39.70
28959;DHT22;16066;0.000;0.000;2024-03-23T10:50:00;21.40;39.70
28959;DHT22;16066;0.000;0.000;2024-03-23T10:52:25;21.40;39.80
28959;DHT22;16066;0.000;0.000;2024-03-23T10:54:51;21.50;39.70
28959;DHT22;16066;0.000;0.000;2024-03-23T10:57:20;21.40;39.50
28959;DHT22;16066;0.000;0.000;2024-03-23T10:59:47;21.40;39.70
28959;DHT22;16066;0.000;0.000;2024-03-23T11:02:20;21.40;39.40
28959;DHT22;16066;0.000;0.000;2024-03-23T11:04:46;21.40;39.30
28959;DHT22;16066;0.000;0.000;2024-03-23T11:07:29;21.40;39.10
28959;DHT22;16066;0.000;0.000;2024-03-23T11:09:55;21.40;39.10
28959;DHT22;16066;0.000;0.000;2024-03-23T11:17:21;21.30;39.10
28959;DHT22;16066;0.000;0.000;2024-03-23T11:19:56;21.20;39.10
28959;DHT22;16066;0.000;0.000;2024-03-23T11:22:41;21.20;39.10
28959;DHT22;16066;0.000;0.000;2024-03-23T11:25:20;21.20;39.00
28959;DHT22;16066;0.000;0.000;2024-03-23T11:27:50;21.20;39.00
28959;DHT22;16066;0.000;0.000;2024-03-23T11:30:24;21.20;38.90
28959;DHT22;16066;0.000;0.000;2024-03-23T11:32:51;21.20;39.00
28959;DHT22;16066;0.000;0.000;2024-03-23T11:35:33;21.20;38.90
28959;DHT22;16066;0.000;0.000;2024-03-23T11:38:16;21.20;38.80
28959;DHT22;16066;0.000;0.000;2024-03-23T11:40:48;21.20;38.80
28959;DHT22;16066;0.000;0.000;2024-03-23T11:43:19;21.20;38.80
28959;DHT22;16066;0.000;0.000;2024-03-23T11:45:47;21.20;38.80
28959;DHT22;16066;0.000;0.000;2024-03-23T11:48:18;21.20;38.80
28959;DHT22;16066;0.000;0.000;2024-03-23T11:50:46;21.20;38.90
28959;DHT22;16066;0.000;0.000;2024-03-23T11:53:18;21.20;39.00
28959;DHT22;16066;0.000;0.000;2024-03-23T11:55:52;21.20;39.20
28959;DHT22;16066;0.000;0.000;2024-03-23T11:58:22;21.30;39.10
28959;DHT22;16066;0.000;0.000;2024-03-23T12:00:56;21.30;39.20
28959;DHT22;16066;0.000;0.000;2024-03-23T12:03:21;21.30;39.10
28959;DHT22;16066;0.000;0.000;2024-03-23T12:05:51;21.30;39.00
28959;DHT22;16066;0.000;0.000;2024-03-23T12:08:29;21.30;39.20
28959;DHT22;16066;0.000;0.000;2024-03-23T12:11:12;21.40;39.30
28959;DHT22;16066;0.000;0.000;2024-03-23T12:13:39;21.40;39.20
28959;DHT22;16066;0.000;0.000;2024-03-23T12:16:17;21.50;39.20
28959;DHT22;16066;0.000;0.000;2024-03-23T12:18:45;21.50;39.80
28959;DHT22;16066;0.000;0.000;2024-03-23T12:21:11;21.40;39.10
28959;DHT22;16066;0.000;0.000;2024-03-23T12:23:39;21.40;39.10
28959;DHT22;16066;0.000;0.000;2024-03-23T12:26:04;21.50;39.20
28959;DHT22;16066;0.000;0.000;2024-03-23T12:28:30;21.50;39.30
28959;DHT22;16066;0.000;0.000;2024-03-23T12:30:55;21.50;39.20
28959;DHT22;16066;0.000;0.000;2024-03-23T12:33:21;21.50;39.20
28959;DHT22;16066;0.000;0.000;2024-03-23T12:35:47;21.50;39.30
28959;DHT22;16066;0.000;0.000;2024-03-23T12:38:13;21.40;39.10
28959;DHT22;16066;0.000;0.000;2024-03-23T12:40:38;21.50;39.10
28959;DHT22;16066;0.000;0.000;2024-03-23T12:43:04;21.40;39.00
28959;DHT22;16066;0.000;0.000;2024-03-23T12:45:29;21.40;39.00
28959;DHT22;16066;0.000;0.000;2024-03-23T12:47:55;21.40;39.00
28959;DHT22;16066;0.000;0.000;2024-03-23T12:50:21;21.40;38.90
28959;DHT22;16066;0.000;0.000;2024-03-23T12:52:47;21.40;39.00
28959;DHT22;16066;0.000;0.000;2024-03-23T12:55:13;21.40;39.10
28959;DHT22;16066;0.000;0.000;2024-03-23T12:57:38;21.40;38.90
28959;DHT22;16066;0.000;0.000;2024-03-23T13:00:04;21.40;38.90
28959;DHT22;16066;0.000;0.000;2024-03-23T13:02:30;21.50;38.80
28959;DHT22;16066;0.000;0.000;2024-03-23T13:04:56;21.50;38.80
28959;DHT22;16066;0.000;0.000;2024-03-23T13:07:23;21.60;38.80
28959;DHT22;16066;0.000;0.000;2024-03-23T13:09:52;21.70;38.90
28959;DHT22;16066;0.000;0.000;2024-03-23T13:12:19;21.70;39.40
28959;DHT22;16066;0.000;0.000;2024-03-23T13:14:46;21.70;38.70
28959;DHT22;16066;0.000;0.000;2024-03-23T13:17:12;21.80;38.80
28959;DHT22;16066;0.000;0.000;2024-03-23T13:19:38;21.70;38.60
28959;DHT22;16066;0.000;0.000;2024-03-23T13:22:04;21.70;38.50
28959;DHT22;16066;0.000;0.000;2024-03-23T13:24:30;21.70;38.50
28959;DHT22;16066;0.000;0.000;2024-03-23T13:26:57;21.80;38.50
28959;DHT22;16066;0.000;0.000;2024-03-23T13:29:23;21.80;38.50
28959;DHT22;16066;0.000;0.000;2024-03-23T13:31:50;22.00;38.60
28959;DHT22;16066;0.000;0.000;2024-03-23T13:34:18;22.10;38.50
28959;DHT22;16066;0.000;0.000;2024-03-23T13:36:44;22.20;38.30
28959;DHT22;16066;0.000;0.000;2024-03-23T13:39:11;22.40;38.20
28959;DHT22;16066;0.000;0.000;2024-03-23T13:41:41;22.40;38.30
28959;DHT22;16066;0.000;0.000;2024-03-23T13:44:07;22.30;38.20
28959;DHT22;16066;0.000;0.000;2024-03-23T13:46:33;22.30;38.20
28959;DHT22;16066;0.000;0.000;2024-03-23T13:48:59;22.30;38.20
28959;DHT22;16066;0.000;0.000;2024-03-23T13:51:25;22.20;38.40
28959;DHT22;16066;0.000;0.000;2024-03-23T13:53:53;22.10;38.40
28959;DHT22;16066;0.000;0.000;2024-03-23T13:56:19;22.00;38.50
28959;DHT22;16066;0.000;0.000;2024-03-23T13:58:45;22.00;38.40
28959;DHT22;16066;0.000;0.000;2024-03-23T14:01:13;22.00;38.50
28959;DHT22;16066;0.000;0.000;2024-03-23T14:03:38;22.00;38.40
28959;DHT22;16066;0.000;0.000;2024-03-23T14:06:04;22.20;38.30
28959;DHT22;16066;0.000;0.000;2024-03-23T14:08:29;22.40;37.90
28959;DHT22;16066;0.000;0.000;2024-03-23T14:10:58;22.70;37.60
28959;DHT22;16066;0.000;0.000;2024-03-23T14:13:23;23.00;37.40
28959;DHT22;16066;0.000;0.000;2024-03-23T14:15:53;23.10;37.10
28959;DHT22;16066;0.000;0.000;2024-03-23T14:18:18;23.10;37.00
28959;DHT22;16066;0.000;0.000;2024-03-23T14:20:44;23.00;37.20
28959;DHT22;16066;0.000;0.000;2024-03-23T14:23:10;22.90;37.40
28959;DHT22;16066;0.000;0.000;2024-03-23T14:25:35;22.80;37.40
28959;DHT22;16066;0.000;0.000;2024-03-23T14:28:01;22.70;37.60
28959;DHT22;16066;0.000;0.000;2024-03-23T14:30:27;22.60;37.40
28959;DHT22;16066;0.000;0.000;2024-03-23T14:32:52;22.50;37.30
28959;DHT22;16066;0.000;0.000;2024-03-23T14:35:18;22.40;37.40
28959;DHT22;16066;0.000;0.000;2024-03-23T14:37:43;22.40;37.50
28959;DHT22;16066;0.000;0.000;2024-03-23T14:40:09;22.50;37.30
28959;DHT22;16066;0.000;0.000;2024-03-23T14:42:38;22.70;37.40
28959;DHT22;16066;0.000;0.000;2024-03-23T14:45:04;23.00;37.10
28959;DHT22;16066;0.000;0.000;2024-03-23T14:47:30;23.20;37.00
28959;DHT22;16066;0.000;0.000;2024-03-23T14:49:57;23.40;36.70
28959;DHT22;16066;0.000;0.000;2024-03-23T14:52:24;23.40;36.90
28959;DHT22;16066;0.000;0.000;2024-03-23T14:54:49;23.20;37.00
28959;DHT22;16066;0.000;0.000;2024-03-23T14:57:15;23.10;37.50
28959;DHT22;16066;0.000;0.000;2024-03-23T14:59:41;23.00;37.40
28959;DHT22;16066;0.000;0.000;2024-03-23T15:02:07;22.80;37.40
28959;DHT22;16066;0.000;0.000;2024-03-23T15:04:33;22.70;37.50
28959;DHT22;16066;0.000;0.000;2024-03-23T15:06:59;22.50;37.50
28959;DHT22;16066;0.000;0.000;2024-03-23T15:09:24;22.40;37.70
28959;DHT22;16066;0.000;0.000;2024-03-23T15:11:50;22.30;37.80
28959;DHT22;16066;0.000;0.000;2024-03-23T15:14:15;22.30;38.00
28959;DHT22;16066;0.000;0.000;2024-03-23T15:16:41;22.20;38.00
28959;DHT22;16066;0.000;0.000;2024-03-23T15:19:08;22.20;38.20
28959;DHT22;16066;0.000;0.000;2024-03-23T15:21:33;22.10;38.00
28959;DHT22;16066;0.000;0.000;2024-03-23T15:23:59;22.00;37.90
28959;DHT22;16066;0.000;0.000;2024-03-23T15:26:25;22.10;38.30
28959;DHT22;16066;0.000;0.000;2024-03-23T15:28:50;22.00;38.30
28959;DHT22;16066;0.000;0.000;2024-03-23T15:31:22;22.00;38.30
28959;DHT22;16066;0.000;0.000;2024-03-23T15:33:47;22.00;38.70
28959;DHT22;16066;0.000;0.000;2024-03-23T15:36:14;22.00;38.80
28959;DHT22;16066;0.000;0.000;2024-03-23T15:38:40;22.10;38.80
28959;DHT22;16066;0.000;0.000;2024-03-23T15:41:06;22.30;38.70
28959;DHT22;16066;0.000;0.000;2024-03-23T15:43:33;22.40;38.30
28959;DHT22;16066;0.000;0.000;2024-03-23T15:46:00;22.50;38.00
28959;DHT22;16066;0.000;0.000;2024-03-23T15:48:26;22.70;37.90
28959;DHT22;16066;0.000;0.000;2024-03-23T15:50:56;22.70;37.60
28959;DHT22;16066;0.000;0.000;2024-03-23T15:53:23;22.80;37.40
28959;DHT22;16066;0.000;0.000;2024-03-23T15:55:59;23.00;37.40
28959;DHT22;16066;0.000;0.000;2024-03-23T15:58:25;23.10;37.00
28959;DHT22;16066;0.000;0.000;2024-03-23T16:03:30;23.40;37.50
28959;DHT22;16066;0.000;0.000;2024-03-23T16:05:58;23.60;37.40
28959;DHT22;16066;0.000;0.000;2024-03-23T16:08:24;23.50;37.30
28959;DHT22;16066;0.000;0.000;2024-03-23T16:10:50;23.40;37.40
28959;DHT22;16066;0.000;0.000;2024-03-23T16:13:16;23.30;37.60
28959;DHT22;16066;0.000;0.000;2024-03-23T16:15:42;23.20;37.90
28959;DHT22;16066;0.000;0.000;2024-03-23T16:18:08;23.10;38.00
28959;DHT22;16066;0.000;0.000;2024-03-23T16:20:33;23.00;37.80
28959;DHT22;16066;0.000;0.000;2024-03-23T16:23:03;22.90;37.30
28959;DHT22;16066;0.000;0.000;2024-03-23T16:25:28;22.80;36.90
28959;DHT22;16066;0.000;0.000;2024-03-23T16:27:54;22.60;36.70
28959;DHT22;16066;0.000;0.000;2024-03-23T16:30:20;22.50;37.00
28959;DHT22;16066;0.000;0.000;2024-03-23T16:32:49;22.50;37.50
28959;DHT22;16066;0.000;0.000;2024-03-23T16:35:15;22.40;37.60
28959;DHT22;16066;0.000;0.000;2024-03-23T16:37:41;22.30;37.70
28959;DHT22;16066;0.000;0.000;2024-03-23T16:40:07;22.30;37.80
28959;DHT22;16066;0.000;0.000;2024-03-23T16:42:35;22.20;38.00
28959;DHT22;16066;0.000;0.000;2024-03-23T16:45:00;22.20;38.00
28959;DHT22;16066;0.000;0.000;2024-03-23T16:47:26;22.10;37.90
28959;DHT22;16066;0.000;0.000;2024-03-23T16:49:53;22.10;38.00
28959;DHT22;16066;0.000;0.000;2024-03-23T16:52:18;22.10;37.80
28959;DHT22;16066;0.000;0.000;2024-03-23T16:54:44;22.10;37.70
28959;DHT22;16066;0.000;0.000;2024-03-23T16:57:09;22.00;37.50
28959;DHT22;16066;0.000;0.000;2024-03-23T16:59:35;22.00;37.40
28959;DHT22;16066;0.000;0.000;2024-03-23T17:02:00;22.00;37.40
28959;DHT22;16066;0.000;0.000;2024-03-23T17:04:26;22.00;37.50
28959;DHT22;16066;0.000;0.000;2024-03-23T17:06:51;21.90;37.50
28959;DHT22;16066;0.000;0.000;2024-03-23T17:09:17;21.90;37.50
28959;DHT22;16066;0.000;0.000;2024-03-23T17:11:43;21.90;37.50
28959;DHT22;16066;0.000;0.000;2024-03-23T17:14:09;21.80;37.40
28959;DHT22;16066;0.000;0.000;2024-03-23T17:16:35;21.80;37.30
28959;DHT22;16066;0.000;0.000;2024-03-23T17:19:01;21.70;37.40
28959;DHT22;16066;0.000;0.000;2024-03-23T17:21:26;21.70;37.50
28959;DHT22;16066;0.000;0.000;2024-03-23T17:23:53;21.70;37.80
28959;DHT22;16066;0.000;0.000;2024-03-23T17:26:22;21.60;37.60
28959;DHT22;16066;0.000;0.000;2024-03-23T17:28:47;21.60;38.10
28959;DHT22;16066;0.000;0.000;2024-03-23T17:31:19;21.60;38.00
28959;DHT22;16066;0.000;0.000;2024-03-23T17:33:49;21.60;38.10
28959;DHT22;16066;0.000;0.000;2024-03-23T17:36:14;21.60;38.10
28959;DHT22;16066;0.000;0.000;2024-03-23T17:38:40;21.60;38.00
28959;DHT22;16066;0.000;0.000;2024-03-23T17:41:06;21.50;37.90
28959;DHT22;16066;0.000;0.000;2024-03-23T17:43:31;21.50;37.90
28959;DHT22;16066;0.000;0.000;2024-03-23T17:45:57;21.50;38.10
28959;DHT22;16066;0.000;0.000;2024-03-23T17:48:23;21.50;38.00
28959;DHT22;16066;0.000;0.000;2024-03-23T17:50:49;21.50;38.00
28959;DHT22;16066;0.000;0.000;2024-03-23T17:53:24;21.50;38.10
28959;DHT22;16066;0.000;0.000;2024-03-23T17:55:50;21.50;38.10
28959;DHT22;16066;0.000;0.000;2024-03-23T17:58:15;21.50;38.00
28959;DHT22;16066;0.000;0.000;2024-03-23T18:00:41;21.50;37.90
28959;DHT22;16066;0.000;0.000;2024-03-23T18:03:07;21.50;37.90
28959;DHT22;16066;0.000;0.000;2024-03-23T18:05:34;21.40;37.60
28959;DHT22;16066;0.000;0.000;2024-03-23T18:07:59;21.40;36.80
28959;DHT22;16066;0.000;0.000;2024-03-23T18:10:25;21.40;37.10
28959;DHT22;16066;0.000;0.000;2024-03-23T18:12:50;21.40;37.50
28959;DHT22;16066;0.000;0.000;2024-03-23T18:15:16;21.40;37.70
28959;DHT22;16066;0.000;0.000;2024-03-23T18:17:42;21.40;37.80
28959;DHT22;16066;0.000;0.000;2024-03-23T18:20:08;21.40;37.80
28959;DHT22;16066;0.000;0.000;2024-03-23T18:22:35;21.40;38.00
28959;DHT22;16066;0.000;0.000;2024-03-23T18:25:01;21.40;38.10
28959;DHT22;16066;0.000;0.000;2024-03-23T18:27:26;21.30;38.00
28959;DHT22;16066;0.000;0.000;2024-03-23T18:29:52;21.40;38.20
28959;DHT22;16066;0.000;0.000;2024-03-23T18:32:18;21.40;38.30
28959;DHT22;16066;0.000;0.000;2024-03-23T18:34:43;21.40;38.30
28959;DHT22;16066;0.000;0.000;2024-03-23T18:37:09;21.40;38.30
28959;DHT22;16066;0.000;0.000;2024-03-23T18:39:34;21.40;38.30
28959;DHT22;16066;0.000;0.000;2024-03-23T18:42:00;21.40;38.50
28959;DHT22;16066;0.000;0.000;2024-03-23T18:44:25;21.40;38.50
28959;DHT22;16066;0.000;0.000;2024-03-23T18:46:51;21.40;38.50
28959;DHT22;16066;0.000;0.000;2024-03-23T18:49:16;21.40;38.60
28959;DHT22;16066;0.000;0.000;2024-03-23T18:51:44;21.40;39.10
28959;DHT22;16066;0.000;0.000;2024-03-23T18:54:09;21.40;38.90
28959;DHT22;16066;0.000;0.000;2024-03-23T18:56:35;21.50;39.00
28959;DHT22;16066;0.000;0.000;2024-03-23T18:59:00;21.50;38.90
28959;DHT22;16066;0.000;0.000;2024-03-23T19:01:26;21.50;38.80
28959;DHT22;16066;0.000;0.000;2024-03-23T19:03:51;21.50;38.90
28959;DHT22;16066;0.000;0.000;2024-03-23T19:06:17;21.50;39.00
28959;DHT22;16066;0.000;0.000;2024-03-23T19:08:42;21.50;38.90
28959;DHT22;16066;0.000;0.000;2024-03-23T19:11:08;21.50;39.10
28959;DHT22;16066;0.000;0.000;2024-03-23T19:13:34;21.50;39.00
28959;DHT22;16066;0.000;0.000;2024-03-23T19:16:00;21.50;38.90
28959;DHT22;16066;0.000;0.000;2024-03-23T19:18:26;21.50;39.00
28959;DHT22;16066;0.000;0.000;2024-03-23T19:20:56;21.50;38.80
28959;DHT22;16066;0.000;0.000;2024-03-23T19:23:22;21.40;38.80
28959;DHT22;16066;0.000;0.000;2024-03-23T19:25:56;21.40;38.70
28959;DHT22;16066;0.000;0.000;2024-03-23T19:28:21;21.40;38.80
28959;DHT22;16066;0.000;0.000;2024-03-23T19:30:48;21.40;38.90
28959;DHT22;16066;0.000;0.000;2024-03-23T19:33:13;21.40;39.00
28959;DHT22;16066;0.000;0.000;2024-03-23T19:35:39;21.40;39.00
28959;DHT22;16066;0.000;0.000;2024-03-23T19:38:05;21.40;39.20
28959;DHT22;16066;0.000;0.000;2024-03-23T19:40:31;21.40;39.30
28959;DHT22;16066;0.000;0.000;2024-03-23T19:42:56;21.50;39.30
28959;DHT22;16066;0.000;0.000;2024-03-23T19:45:22;21.50;39.20
28959;DHT22;16066;0.000;0.000;2024-03-23T19:47:47;21.40;39.10
28959;DHT22;16066;0.000;0.000;2024-03-23T19:50:13;21.40;39.00
28959;DHT22;16066;0.000;0.000;2024-03-23T19:52:38;21.40;38.90
28959;DHT22;16066;0.000;0.000;2024-03-23T19:55:04;21.40;38.90
28959;DHT22;16066;0.000;0.000;2024-03-23T19:57:30;21.40;38.90
28959;DHT22;16066;0.000;0.000;2024-03-23T19:59:55;21.40;39.60
28959;DHT22;16066;0.000;0.000;2024-03-23T20:02:21;21.40;39.00
28959;DHT22;16066;0.000;0.000;2024-03-23T20:04:47;21.40;39.00
28959;DHT22;16066;0.000;0.000;2024-03-23T20:07:13;21.40;38.80
28959;DHT22;16066;0.000;0.000;2024-03-23T20:09:38;21.40;38.30
28959;DHT22;16066;0.000;0.000;2024-03-23T20:12:04;21.40;38.10
28959;DHT22;16066;0.000;0.000;2024-03-23T20:14:30;21.40;38.00
28959;DHT22;16066;0.000;0.000;2024-03-23T20:16:55;21.40;38.20
28959;DHT22;16066;0.000;0.000;2024-03-23T20:19:21;21.30;38.20
28959;DHT22;16066;0.000;0.000;2024-03-23T20:21:46;21.30;38.30
28959;DHT22;16066;0.000;0.000;2024-03-23T20:24:12;21.30;38.40
28959;DHT22;16066;0.000;0.000;2024-03-23T20:26:37;21.30;38.40
28959;DHT22;16066;0.000;0.000;2024-03-23T20:29:03;21.30;38.30
28959;DHT22;16066;0.000;0.000;2024-03-23T20:31:28;21.30;38.30
28959;DHT22;16066;0.000;0.000;2024-03-23T20:33:54;21.30;38.40
28959;DHT22;16066;0.000;0.000;2024-03-23T20:36:21;21.30;38.40
28959;DHT22;16066;0.000;0.000;2024-03-23T20:38:47;21.30;38.40
28959;DHT22;16066;0.000;0.000;2024-03-23T20:41:12;21.30;38.30
28959;DHT22;16066;0.000;0.000;2024-03-23T20:43:38;21.30;38.30
28959;DHT22;16066;0.000;0.000;2024-03-23T20:46:10;21.30;38.30
28959;DHT22;16066;0.000;0.000;2024-03-23T20:48:36;21.20;38.30
28959;DHT22;16066;0.000;0.000;2024-03-23T20:51:06;21.20;38.30
28959;DHT22;16066;0.000;0.000;2024-03-23T20:53:31;21.20;38.40
28959;DHT22;16066;0.000;0.000;2024-03-23T20:55:58;21.30;38.60
28959;DHT22;16066;0.000;0.000;2024-03-23T20:58:26;21.30;38.60
28959;DHT22;16066;0.000;0.000;2024-03-23T21:00:52;21.30;38.60
28959;DHT22;16066;0.000;0.000;2024-03-23T21:03:17;21.30;38.70
28959;DHT22;16066;0.000;0.000;2024-03-23T21:05:43;21.30;38.60
28959;DHT22;16066;0.000;0.000;2024-03-23T21:08:12;21.20;38.60
28959;DHT22;16066;0.000;0.000;2024-03-23T21:10:38;21.20;38.60
28959;DHT22;16066;0.000;0.000;2024-03-23T21:13:04;21.20;38.50
28959;DHT22;16066;0.000;0.000;2024-03-23T21:15:30;21.20;38.70
28959;DHT22;16066;0.000;0.000;2024-03-23T21:17:56;21.20;38.70
28959;DHT22;16066;0.000;0.000;2024-03-23T21:20:21;21.20;38.70
28959;DHT22;16066;0.000;0.000;2024-03-23T21:22:50;21.20;39.40
28959;DHT22;16066;0.000;0.000;2024-03-23T21:25:15;21.20;38.90
28959;DHT22;16066;0.000;0.000;2024-03-23T21:27:41;21.20;39.10
28959;DHT22;16066;0.000;0.000;2024-03-23T21:30:07;21.20;39.10
28959;DHT22;16066;0.000;0.000;2024-03-23T21:32:32;21.30;39.10
28959;DHT22;16066;0.000;0.000;2024-03-23T21:34:58;21.30;39.20
28959;DHT22;16066;0.000;0.000;2024-03-23T21:37:23;21.30;39.20
28959;DHT22;16066;0.000;0.000;2024-03-23T21:39:49;21.30;39.10
28959;DHT22;16066;0.000;0.000;2024-03-23T21:42:15;21.30;39.20
28959;DHT22;16066;0.000;0.000;2024-03-23T21:44:40;21.30;39.10
28959;DHT22;16066;0.000;0.000;2024-03-23T21:47:06;21.30;39.10
28959;DHT22;16066;0.000;0.000;2024-03-23T21:49:32;21.30;39.10
28959;DHT22;16066;0.000;0.000;2024-03-23T21:51:57;21.30;39.20
28959;DHT22;16066;0.000;0.000;2024-03-23T21:54:28;21.30;39.10